Time;durP1;ratioP1;P1;durP2;ratioP2;P2;SDS_P1;SDS_P2;PMS_P1;PMS_P2;Temp;Humidity;BMP_temperature;BMP_pressure;BME280_temperature;BME280_humidity;BME280_pressure;Samples;Min_cycle;Max_cycle;Signal;HPM_P1;HPM_P2
2022/07/30 00:05:25;;;;;;;2.63;2.00;;;17.40;99.70;;;;;;5054014;28;20161;-89
2022/07/30 00:08:08;;;;;;;3.50;1.90;;;17.40;99.80;;;;;;5055036;28;20198;-89
2022/07/30 00:14:43;;;;;;;2.40;2.20;;;17.40;99.60;;;;;;5063275;28;20215;-88
2022/07/30 00:17:26;;;;;;;7.03;6.32;;;17.30;99.70;;;;;;5074784;28;20201;-89
2022/07/30 00:23:16;;;;;;;2.20;2.00;;;17.20;99.90;;;;;;5073314;28;20185;-89
2022/07/30 00:26:31;;;;;;;3.08;2.13;;;17.20;99.90;;;;;;5074104;28;20213;-89
2022/07/30 00:38:13;;;;;;;2.47;2.10;;;17.30;99.90;;;;;;5051224;28;20700;-89
2022/07/30 00:44:04;;;;;;;3.20;3.00;;;17.40;99.90;;;;;;5059619;28;20166;-89
2022/07/30 00:49:52;;;;;;;4.60;3.13;;;17.40;99.50;;;;;;5039759;28;20205;-89
2022/07/30 00:52:32;;;;;;;4.75;1.77;;;17.40;99.70;;;;;;5054299;28;20198;-89
2022/07/30 01:02:31;;;;;;;1.80;1.70;;;17.20;99.90;;;;;;5038171;28;20169;-88
2022/07/30 01:31:30;;;;;;;4.07;2.25;;;17.20;99.90;;;;;;5048984;28;20197;-89
2022/07/30 01:38:16;;;;;;;2.72;1.95;;;17.20;99.90;;;;;;5052791;28;20174;-90
2022/07/30 01:44:14;;;;;;;4.38;2.33;;;17.30;99.90;;;;;;5052773;28;20188;-89
2022/07/30 01:50:13;;;;;;;2.58;1.90;;;17.30;99.90;;;;;;5036810;28;20620;-88
2022/07/30 02:02:48;;;;;;;2.67;2.30;;;17.30;99.90;;;;;;5050684;28;20197;-89
2022/07/30 02:05:23;;;;;;;2.30;2.10;;;17.20;99.90;;;;;;5056618;28;20634;-89
2022/07/30 02:14:24;;;;;;;2.95;2.20;;;17.20;99.90;;;;;;5055817;28;20213;-88
2022/07/30 02:17:24;;;;;;;4.22;2.17;;;17.30;99.90;;;;;;5056517;28;20214;-88
2022/07/30 02:23:25;;;;;;;3.55;2.40;;;17.20;99.90;;;;;;5055495;28;20248;-88
2022/07/30 02:35:09;;;;;;;2.80;2.35;;;17.20;99.90;;;;;;5075340;28;20572;-89
2022/07/30 02:38:26;;;;;;;2.83;2.50;;;17.20;99.90;;;;;;5078168;28;20199;-89
2022/07/30 02:40:56;;;;;;;3.70;2.55;;;17.20;99.90;;;;;;5078241;28;20205;-89
2022/07/30 03:04:05;;;;;;;3.72;2.70;;;17.40;99.90;;;;;;5067118;28;20235;-89
2022/07/30 03:13:50;;;;;;;4.20;3.00;;;17.30;99.90;;;;;;5075902;28;20176;-89
2022/07/30 03:19:41;;;;;;;6.65;2.80;;;17.40;99.00;;;;;;5061949;28;20211;-89
2022/07/30 03:25:40;;;;;;;3.15;2.70;;;17.30;99.30;;;;;;5083490;28;20192;-89
2022/07/30 03:28:21;;;;;;;4.70;3.13;;;17.30;98.70;;;;;;5078397;28;20219;-90
2022/07/30 03:47:41;;;;;;;4.03;3.10;;;17.00;99.90;;;;;;5068016;28;20181;-90
2022/07/30 03:54:26;;;;;;;3.50;3.17;;;17.00;99.90;;;;;;5056518;28;20251;-89
2022/07/30 03:56:53;;;;;;;6.95;3.50;;;17.10;99.90;;;;;;5072238;28;20534;-89
2022/07/30 03:59:20;;;;;;;5.25;3.50;;;17.10;99.90;;;;;;5055186;28;20205;-89
2022/07/30 04:12:25;;;;;;;3.97;3.60;;;17.00;99.90;;;;;;5075455;28;20189;-89
2022/07/30 04:18:42;;;;;;;3.72;3.30;;;17.10;99.90;;;;;;5072442;28;20189;-89
2022/07/30 05:24:22;;;;;;;7.22;3.42;;;18.10;96.00;;;;;;5378960;22;20816;-90
2022/07/30 05:30:16;;;;;;;4.30;2.80;;;18.30;95.70;;;;;;5028932;28;20621;-89
2022/07/30 05:38:40;;;;;;;5.53;3.33;;;18.30;95.90;;;;;;5056676;28;20212;-90
2022/07/30 05:41:11;;;;;;;6.75;3.15;;;18.30;95.10;;;;;;5055966;28;20204;-90
2022/07/30 05:43:50;;;;;;;4.22;3.05;;;18.30;94.90;;;;;;5049839;28;20569;-89
2022/07/30 05:49:50;;;;;;;5.00;3.10;;;18.50;94.20;;;;;;5041149;28;20228;-90
2022/07/30 05:55:57;;;;;;;4.35;3.05;;;18.60;93.80;;;;;;5058592;28;20250;-90
2022/07/30 05:58:25;;;;;;;4.00;3.10;;;18.70;93.30;;;;;;5056741;28;20202;-90
2022/07/30 06:00:52;;;;;;;3.97;3.10;;;18.80;92.60;;;;;;5057487;28;20208;-91
2022/07/30 06:03:33;;;;;;;3.38;3.08;;;18.80;92.30;;;;;;5057845;28;20202;-90
2022/07/30 06:06:03;;;;;;;4.90;3.15;;;18.70;92.70;;;;;;5062149;28;20247;-89
2022/07/30 06:08:38;;;;;;;4.22;3.13;;;18.70;93.20;;;;;;5057548;28;20213;-89
2022/07/30 06:11:14;;;;;;;4.82;3.35;;;18.60;92.90;;;;;;5060032;28;20232;-91
2022/07/30 06:17:27;;;;;;;5.22;3.60;;;18.70;92.60;;;;;;5040373;28;20181;-90
2022/07/30 06:19:54;;;;;;;5.85;3.58;;;18.80;92.60;;;;;;5056275;28;20213;-90
2022/07/30 06:22:32;;;;;;;3.90;3.50;;;18.90;92.40;;;;;;5058530;28;20290;-91
2022/07/30 06:24:59;;;;;;;4.03;3.33;;;18.90;92.40;;;;;;5056202;28;20202;-91
2022/07/30 06:27:26;;;;;;;6.38;3.50;;;18.90;92.40;;;;;;5064086;28;20207;-89
2022/07/30 06:30:04;;;;;;;3.78;3.47;;;19.20;91.30;;;;;;5054938;28;20218;-91
2022/07/30 06:32:34;;;;;;;7.85;3.90;;;19.30;90.90;;;;;;5047998;28;20221;-91
2022/07/30 06:35:01;;;;;;;4.95;3.28;;;19.50;91.30;;;;;;5028958;28;20233;-90
2022/07/30 06:37:38;;;;;;;4.53;3.70;;;19.50;90.30;;;;;;5031833;28;20222;-91
2022/07/30 06:40:09;;;;;;;4.30;3.47;;;19.40;90.60;;;;;;5029859;28;20208;-91
2022/07/30 06:42:36;;;;;;;3.75;3.40;;;19.30;90.40;;;;;;5030969;28;20206;-90
2022/07/30 06:45:03;;;;;;;4.25;3.70;;;19.30;90.20;;;;;;5034238;28;20210;-90
2022/07/30 06:47:33;;;;;;;5.57;3.88;;;19.40;90.00;;;;;;5035084;28;20213;-90
2022/07/30 06:50:02;;;;;;;4.43;3.30;;;19.30;90.20;;;;;;5031664;28;20219;-90
2022/07/30 06:55:57;;;;;;;6.45;4.05;;;19.40;90.20;;;;;;5026823;28;20268;-90
2022/07/30 06:58:26;;;;;;;5.03;3.75;;;19.70;87.80;;;;;;5032322;28;20199;-90
2022/07/30 07:00:53;;;;;;;9.30;8.20;;;19.90;85.30;;;;;;5032273;28;20208;-90
2022/07/30 07:03:20;;;;;;;27.25;23.48;;;19.80;86.00;;;;;;5028814;28;20198;-90
2022/07/30 07:05:48;;;;;;;6.95;4.80;;;19.90;85.50;;;;;;5033670;28;20211;-91
2022/07/30 07:08:17;;;;;;;17.35;13.82;;;19.80;84.50;;;;;;5029945;28;20567;-90
2022/07/30 07:10:50;;;;;;;9.48;7.68;;;19.80;86.10;;;;;;5029252;28;20309;-90
2022/07/30 07:16:41;;;;;;;6.10;4.50;;;20.10;83.20;;;;;;5042442;28;20561;-88
2022/07/30 07:19:32;;;;;;;6.38;4.22;;;20.50;80.90;;;;;;5043264;28;20377;-87
2022/07/30 07:28:46;;;;;;;5.28;4.40;;;21.00;77.30;;;;;;5035993;28;20256;-89
2022/07/30 07:31:21;;;;;;;8.23;4.70;;;21.30;74.70;;;;;;5034254;28;20217;-89
2022/07/30 07:34:02;;;;;;;6.78;4.93;;;21.50;69.90;;;;;;5032565;28;20246;-90
2022/07/30 07:36:39;;;;;;;6.03;5.25;;;21.60;69.80;;;;;;5034017;28;20218;-89
2022/07/30 07:39:20;;;;;;;5.40;4.90;;;21.40;67.90;;;;;;5033110;28;20198;-89
2022/07/30 07:42:08;;;;;;;7.97;5.45;;;21.40;71.50;;;;;;5034083;28;20214;-89
2022/07/30 07:45:14;;;;;;;7.53;5.07;;;21.40;70.10;;;;;;5036114;28;20206;-88
2022/07/30 07:51:44;;;;;;;20.25;14.68;;;21.40;66.90;;;;;;5032351;28;20229;-86
2022/07/30 07:57:46;;;;;;;6.05;5.00;;;22.00;60.70;;;;;;5037148;28;20529;-85
2022/07/30 08:00:26;;;;;;;7.60;5.47;;;21.80;63.50;;;;;;5027848;28;20197;-85
2022/07/30 08:02:56;;;;;;;7.57;5.75;;;22.00;60.30;;;;;;5034720;28;20571;-85
2022/07/30 08:05:24;;;;;;;8.35;5.43;;;21.90;61.60;;;;;;5034697;28;20202;-86
2022/07/30 08:08:44;;;;;;;9.30;5.32;;;21.80;62.40;;;;;;5022645;28;20555;-85
2022/07/30 08:11:44;;;;;;;5.88;4.78;;;21.90;61.90;;;;;;5031494;28;20317;-86
2022/07/30 08:14:13;;;;;;;7.45;5.50;;;22.00;60.50;;;;;;5034178;28;20203;-87
2022/07/30 08:16:40;;;;;;;6.63;4.95;;;22.10;57.80;;;;;;5034105;28;20202;-87
2022/07/30 08:19:10;;;;;;;6.53;4.93;;;22.00;60.40;;;;;;5030105;28;20199;-87
2022/07/30 08:21:37;;;;;;;7.57;5.28;;;22.10;57.80;;;;;;5036825;28;20612;-86
2022/07/30 08:24:06;;;;;;;8.25;4.88;;;22.20;57.60;;;;;;5043900;28;20205;-87
2022/07/30 08:26:33;;;;;;;8.15;5.05;;;22.10;57.80;;;;;;5037195;28;20569;-87
2022/07/30 08:29:00;;;;;;;6.50;4.60;;;22.00;56.50;;;;;;5035309;28;20214;-90
2022/07/30 08:31:34;;;;;;;6.85;4.82;;;22.10;57.80;;;;;;5031097;28;20210;-92
2022/07/30 08:34:00;;;;;;;4.88;4.30;;;22.40;55.60;;;;;;5035741;28;20211;-91
2022/07/30 08:36:27;;;;;;;4.93;4.25;;;22.50;50.80;;;;;;5034833;28;20205;-88
2022/07/30 08:38:54;;;;;;;4.20;3.80;;;22.60;50.60;;;;;;5036733;28;20198;-90
2022/07/30 08:41:21;;;;;;;4.32;3.92;;;22.80;46.90;;;;;;5036341;28;20226;-88
2022/07/30 08:43:51;;;;;;;7.20;4.00;;;22.70;45.40;;;;;;5032757;28;20209;-90
2022/07/30 08:46:25;;;;;;;7.50;4.38;;;22.70;46.50;;;;;;5031626;28;20639;-92
2022/07/30 08:49:04;;;;;;;6.03;3.83;;;22.60;46.20;;;;;;5031347;28;20195;-91
2022/07/30 08:51:31;;;;;;;8.57;4.13;;;22.70;46.30;;;;;;5026410;28;20233;-88
2022/07/30 08:53:59;;;;;;;8.93;4.25;;;22.90;42.10;;;;;;5024420;28;20207;-84
2022/07/30 08:56:27;;;;;;;7.43;3.35;;;23.70;39.70;;;;;;5028647;28;20260;-86
2022/07/30 08:58:54;;;;;;;4.75;3.53;;;25.50;34.80;;;;;;5026400;28;20253;-86
2022/07/30 09:01:27;;;;;;;4.15;3.50;;;27.10;22.70;;;;;;5033039;28;20202;-86
2022/07/30 09:03:54;;;;;;;4.05;3.45;;;26.40;25.90;;;;;;5030664;28;20568;-88
2022/07/30 09:06:28;;;;;;;4.22;3.80;;;26.90;23.20;;;;;;5035145;28;20206;-86
2022/07/30 09:08:55;;;;;;;4.15;3.75;;;28.00;20.30;;;;;;5034220;28;20197;-85
2022/07/30 09:11:26;;;;;;;3.95;3.42;;;28.70;18.50;;;;;;5032040;28;20237;-86
2022/07/30 09:13:53;;;;;;;6.43;4.03;;;28.90;17.60;;;;;;5029460;28;20198;-85
2022/07/30 09:16:22;;;;;;;4.40;3.63;;;29.00;17.90;;;;;;5030246;28;20209;-86
2022/07/30 09:18:50;;;;;;;7.25;3.58;;;29.60;16.40;;;;;;5040597;28;20213;-87
2022/07/30 09:21:19;;;;;;;5.32;4.00;;;29.50;16.40;;;;;;5035609;28;20202;-89
2022/07/30 09:23:58;;;;;;;5.95;4.00;;;29.60;16.50;;;;;;5029344;28;20450;-85
2022/07/30 09:26:26;;;;;;;3.90;3.47;;;30.00;16.30;;;;;;5035813;28;20571;-86
2022/07/30 09:28:53;;;;;;;4.05;3.60;;;31.20;14.10;;;;;;5036115;28;20198;-87
2022/07/30 09:31:22;;;;;;;8.93;3.80;;;31.80;12.30;;;;;;5038166;28;20226;-89
2022/07/30 09:33:49;;;;;;;5.63;3.70;;;31.80;11.80;;;;;;5030132;28;20202;-86
2022/07/30 09:36:17;;;;;;;7.03;4.32;;;30.50;13.20;;;;;;5037015;28;20206;-88
2022/07/30 09:38:47;;;;;;;5.85;3.30;;;30.70;12.30;;;;;;5039160;28;20212;-87
2022/07/30 09:41:17;;;;;;;5.05;3.53;;;30.20;13.10;;;;;;5033692;28;20205;-88
2022/07/30 09:43:48;;;;;;;4.80;3.40;;;30.20;14.30;;;;;;5034727;28;20198;-88
2022/07/30 09:46:16;;;;;;;4.93;3.20;;;31.20;12.30;;;;;;5032606;28;20202;-87
2022/07/30 09:48:43;;;;;;;5.57;3.78;;;31.20;12.70;;;;;;5031595;28;20562;-88
2022/07/30 09:51:10;;;;;;;4.13;3.67;;;31.20;12.50;;;;;;5029468;28;20657;-87
2022/07/30 09:53:53;;;;;;;6.32;3.60;;;32.10;11.10;;;;;;5034474;28;20569;-88
2022/07/30 09:56:29;;;;;;;7.57;3.60;;;31.60;11.80;;;;;;5027278;28;20202;-87
2022/07/30 09:58:56;;;;;;;5.15;3.80;;;32.10;11.50;;;;;;5036659;28;20205;-88
2022/07/30 10:01:51;;;;;;;9.00;3.58;;;32.60;9.60;;;;;;5033035;28;20206;-90
2022/07/30 10:04:24;;;;;;;6.30;3.60;;;31.20;12.60;;;;;;5037608;28;20209;-87
2022/07/30 10:06:53;;;;;;;5.00;3.60;;;30.80;12.40;;;;;;5036167;28;20210;-86
2022/07/30 10:09:28;;;;;;;5.82;3.40;;;30.20;13.60;;;;;;5032193;28;20207;-87
2022/07/30 10:12:00;;;;;;;4.45;3.40;;;30.70;13.10;;;;;;5030140;28;20214;-88
2022/07/30 10:14:30;;;;;;;5.07;4.63;;;31.70;10.00;;;;;;5035489;28;20198;-88
2022/07/30 10:16:57;;;;;;;3.83;3.40;;;30.90;11.50;;;;;;5038275;28;20213;-85
2022/07/30 10:19:25;;;;;;;5.80;3.50;;;30.50;13.00;;;;;;5031987;28;20200;-88
2022/07/30 10:22:02;;;;;;;4.15;3.55;;;30.60;11.30;;;;;;5037415;28;20209;-92
2022/07/30 10:24:40;;;;;;;4.13;3.45;;;29.90;12.00;;;;;;5036829;28;20208;-87
2022/07/30 10:27:23;;;;;;;2.95;2.65;;;28.70;15.00;;;;;;5036422;28;20201;-88
2022/07/30 10:29:51;;;;;;;4.03;3.20;;;28.40;15.90;;;;;;5034148;28;20673;-88
2022/07/30 10:32:21;;;;;;;4.18;3.03;;;28.50;14.20;;;;;;5038614;28;20237;-88
2022/07/30 10:34:57;;;;;;;7.00;3.30;;;28.70;15.50;;;;;;5033485;28;20668;-86
2022/07/30 10:37:43;;;;;;;5.63;2.95;;;29.60;13.50;;;;;;5034591;28;20285;-86
2022/07/30 10:40:21;;;;;;;4.25;2.72;;;29.60;11.70;;;;;;5028726;28;20197;-89
2022/07/30 10:43:20;;;;;;;8.20;3.47;;;30.00;11.70;;;;;;5034534;28;20541;-87
2022/07/30 10:46:01;;;;;;;7.28;3.60;;;29.40;12.60;;;;;;5028561;28;20194;-86
2022/07/30 10:48:33;;;;;;;4.65;2.95;;;28.10;15.60;;;;;;5042584;28;20221;-86
2022/07/30 10:51:03;;;;;;;2.90;2.50;;;27.90;15.60;;;;;;5030605;28;20264;-86
2022/07/30 10:53:40;;;;;;;9.75;4.03;;;28.70;13.90;;;;;;5036032;28;20210;-84
2022/07/30 10:56:38;;;;;;;4.03;2.92;;;28.70;14.80;;;;;;5030358;28;20291;-84
2022/07/30 10:59:07;;;;;;;5.05;3.03;;;28.20;14.60;;;;;;5030607;28;20210;-85
2022/07/30 11:02:14;;;;;;;5.68;2.92;;;28.90;14.90;;;;;;5031195;28;20198;-87
2022/07/30 11:04:43;;;;;;;5.07;2.72;;;29.60;14.50;;;;;;5027381;28;20285;-85
2022/07/30 11:07:32;;;;;;;7.13;3.30;;;29.20;12.50;;;;;;5026787;28;20836;-85
2022/07/30 11:10:03;;;;;;;5.00;3.00;;;28.50;14.20;;;;;;5028440;28;20206;-87
2022/07/30 11:12:54;;;;;;;7.93;5.85;;;28.80;14.30;;;;;;5030313;28;20302;-88
2022/07/30 11:15:54;;;;;;;4.38;3.97;;;28.40;15.20;;;;;;5029397;28;20814;-83
2022/07/30 11:18:22;;;;;;;6.60;6.00;;;28.00;15.60;;;;;;5034821;28;20199;-87
2022/07/30 11:21:18;;;;;;;4.40;2.83;;;27.70;15.50;;;;;;5033408;28;20202;-89
2022/07/30 11:23:46;;;;;;;3.88;2.47;;;27.40;15.30;;;;;;5029012;28;20213;-89
2022/07/30 11:26:47;;;;;;;4.82;2.50;;;27.20;15.20;;;;;;5030435;28;20194;-89
2022/07/30 11:29:33;;;;;;;4.93;2.70;;;27.40;15.30;;;;;;5026122;28;20220;-90
2022/07/30 11:32:38;;;;;;;9.30;6.95;;;27.30;15.30;;;;;;5031674;28;20241;-85
2022/07/30 11:35:14;;;;;;;4.63;3.23;;;26.80;17.40;;;;;;4975838;28;1134109;-84
2022/07/30 11:38:01;;;;;;;3.55;2.50;;;26.90;18.40;;;;;;5042782;28;20268;-84
2022/07/30 11:40:34;;;;;;;2.50;2.30;;;26.90;17.70;;;;;;5032584;28;20209;-86
2022/07/30 11:43:22;;;;;;;4.10;3.05;;;26.90;15.20;;;;;;5029681;28;20206;-87
2022/07/30 11:45:52;;;;;;;6.97;4.60;;;27.10;15.20;;;;;;5031351;28;20214;-89
2022/07/30 11:48:21;;;;;;;2.75;2.10;;;26.90;15.10;;;;;;5029870;28;21077;-87
2022/07/30 11:50:48;;;;;;;6.35;4.63;;;26.60;14.90;;;;;;5030680;28;20198;-86
2022/07/30 11:53:19;;;;;;;6.13;2.65;;;26.20;18.70;;;;;;5030742;28;20206;-88
2022/07/30 11:55:52;;;;;;;3.22;2.40;;;26.00;17.80;;;;;;5031806;28;20205;-88
2022/07/30 11:58:30;;;;;;;3.30;2.33;;;26.00;17.10;;;;;;5028545;28;20617;-89
2022/07/30 12:01:00;;;;;;;8.38;2.70;;;25.90;17.50;;;;;;5033305;28;20197;-88
2022/07/30 12:03:30;;;;;;;4.32;3.10;;;25.50;17.60;;;;;;5030015;28;20321;-88
2022/07/30 12:06:04;;;;;;;4.47;3.00;;;25.00;19.90;;;;;;5026758;28;20219;-86
2022/07/30 12:08:40;;;;;;;3.25;2.65;;;24.80;19.80;;;;;;5034327;28;20205;-87
2022/07/30 12:11:15;;;;;;;4.05;2.60;;;24.80;20.60;;;;;;5038149;28;20233;-89
2022/07/30 12:13:55;;;;;;;7.15;2.63;;;24.60;21.20;;;;;;5027963;28;20560;-89
2022/07/30 12:16:27;;;;;;;5.15;2.60;;;25.00;20.90;;;;;;5031470;28;20198;-89
2022/07/30 12:19:34;;;;;;;3.72;2.15;;;25.40;19.00;;;;;;5032004;28;20199;-90
2022/07/30 12:22:02;;;;;;;4.45;2.70;;;25.50;18.50;;;;;;5031828;28;20214;-86
2022/07/30 12:24:31;;;;;;;3.97;2.50;;;25.70;18.90;;;;;;5040208;28;20201;-88
2022/07/30 12:27:04;;;;;;;2.72;2.10;;;25.80;18.60;;;;;;5036462;28;20570;-87
2022/07/30 12:29:39;;;;;;;2.05;1.85;;;26.00;17.00;;;;;;5043173;28;20204;-88
2022/07/30 12:33:02;;;;;;;5.65;2.13;;;26.00;16.20;;;;;;5038187;28;20234;-88
2022/07/30 12:35:45;;;;;;;4.40;2.08;;;25.80;15.70;;;;;;5032948;28;20208;-90
2022/07/30 12:38:15;;;;;;;3.33;2.30;;;25.90;16.80;;;;;;5032346;28;20203;-89
2022/07/30 12:41:06;;;;;;;2.92;2.20;;;26.00;16.80;;;;;;5036258;28;20207;-91
2022/07/30 12:46:50;;;;;;;3.38;1.90;;;26.00;15.70;;;;;;5036129;28;20203;-91
2022/07/30 12:49:29;;;;;;;1.98;1.80;;;25.70;14.50;;;;;;5052484;28;20229;-92
2022/07/30 12:51:55;;;;;;;2.40;1.90;;;25.40;15.30;;;;;;5035786;28;20711;-92
2022/07/30 12:54:22;;;;;;;3.15;1.90;;;25.50;15.80;;;;;;5031716;28;20268;-91
2022/07/30 12:57:05;;;;;;;2.47;2.10;;;25.60;15.30;;;;;;5031191;28;20682;-92
2022/07/30 12:59:34;;;;;;;2.03;1.85;;;25.80;14.60;;;;;;5028562;28;20195;-92
2022/07/30 13:02:31;;;;;;;2.15;1.67;;;25.90;14.60;;;;;;5033505;28;20674;-89
2022/07/30 13:05:14;;;;;;;3.00;2.10;;;26.10;14.70;;;;;;5032998;28;20206;-89
2022/07/30 13:07:55;;;;;;;1.90;1.80;;;26.10;14.70;;;;;;5034650;28;20582;-89
2022/07/30 13:10:27;;;;;;;3.53;1.70;;;26.20;15.60;;;;;;5044591;28;20205;-89
2022/07/30 13:12:58;;;;;;;5.80;2.15;;;26.20;15.70;;;;;;5035468;28;20229;-90
2022/07/30 13:15:39;;;;;;;3.30;1.90;;;26.20;15.60;;;;;;5031841;28;20208;-87
2022/07/30 13:18:05;;;;;;;2.42;1.73;;;26.20;14.70;;;;;;5038726;28;20225;-88
2022/07/30 13:20:32;;;;;;;3.80;2.10;;;26.20;14.70;;;;;;5035661;28;20561;-88
2022/07/30 13:23:03;;;;;;;2.88;2.10;;;26.10;14.70;;;;;;5045038;28;20278;-88
2022/07/30 13:25:30;;;;;;;3.83;2.22;;;26.10;14.70;;;;;;5052977;28;20662;-88
2022/07/30 13:27:58;;;;;;;3.88;2.05;;;26.30;14.80;;;;;;5035112;28;20198;-87
2022/07/30 13:30:25;;;;;;;3.78;2.30;;;26.30;14.80;;;;;;5036654;28;20286;-86
2022/07/30 13:32:52;;;;;;;2.33;1.83;;;26.50;15.80;;;;;;5039949;28;20257;-86
2022/07/30 13:35:19;;;;;;;3.53;2.13;;;26.60;14.90;;;;;;5035112;28;20207;-86
2022/07/30 13:37:45;;;;;;;1.95;1.80;;;26.50;14.90;;;;;;5041757;28;20210;-85
2022/07/30 13:40:14;;;;;;;2.13;1.90;;;26.40;14.00;;;;;;5043283;28;20206;-85
2022/07/30 13:42:41;;;;;;;2.88;2.08;;;26.30;14.40;;;;;;5042055;28;20270;-86
2022/07/30 13:45:11;;;;;;;4.30;2.20;;;26.20;14.70;;;;;;5042569;28;20205;-84
2022/07/30 13:47:38;;;;;;;2.30;2.10;;;26.10;14.70;;;;;;5040881;28;20199;-87
2022/07/30 13:50:05;;;;;;;4.13;2.08;;;26.20;14.70;;;;;;5041502;28;20233;-87
2022/07/30 13:52:32;;;;;;;4.43;2.13;;;26.10;14.40;;;;;;5035677;28;20242;-86
2022/07/30 13:55:00;;;;;;;4.45;2.30;;;26.10;14.70;;;;;;5034985;28;20202;-85
2022/07/30 13:57:32;;;;;;;2.80;2.10;;;25.90;14.60;;;;;;5033581;28;20554;-85
2022/07/30 13:59:59;;;;;;;2.50;2.05;;;25.70;14.50;;;;;;5038064;28;20282;-89
2022/07/30 14:02:28;;;;;;;2.78;2.13;;;25.80;14.50;;;;;;5039024;28;20225;-86
2022/07/30 14:04:55;;;;;;;4.10;2.20;;;25.90;14.60;;;;;;5034890;28;20658;-86
2022/07/30 14:07:22;;;;;;;3.58;2.10;;;25.90;14.60;;;;;;5039008;28;20207;-86
2022/07/30 14:09:49;;;;;;;4.25;2.30;;;25.80;14.50;;;;;;5034659;28;20199;-87
2022/07/30 14:12:16;;;;;;;3.05;2.20;;;25.70;14.50;;;;;;5031828;28;20241;-87
2022/07/30 14:14:43;;;;;;;3.70;2.30;;;25.60;14.50;;;;;;5031438;28;20210;-88
2022/07/30 14:17:10;;;;;;;2.30;2.10;;;25.60;14.40;;;;;;5030437;28;20217;-86
2022/07/30 14:19:38;;;;;;;3.85;2.05;;;25.80;14.60;;;;;;5034202;28;20233;-84
2022/07/30 14:22:06;;;;;;;2.58;2.03;;;25.90;14.60;;;;;;5038970;28;20210;-86
2022/07/30 14:24:33;;;;;;;2.15;1.95;;;25.90;14.60;;;;;;5033924;28;20207;-87
2022/07/30 14:27:00;;;;;;;3.80;2.10;;;26.00;14.60;;;;;;5039624;28;20207;-84
2022/07/30 14:29:27;;;;;;;2.15;1.90;;;26.00;14.60;;;;;;5037172;28;20199;-87
2022/07/30 14:31:57;;;;;;;2.85;2.20;;;26.00;14.60;;;;;;5033467;28;20257;-89
2022/07/30 14:34:23;;;;;;;2.30;2.10;;;25.90;14.60;;;;;;5034060;28;20350;-90
2022/07/30 14:36:52;;;;;;;3.75;1.92;;;26.00;14.60;;;;;;5035263;28;20270;-86
2022/07/30 14:39:20;;;;;;;2.30;2.00;;;26.10;13.70;;;;;;5037725;28;20199;-85
2022/07/30 14:41:46;;;;;;;3.50;1.90;;;26.20;14.70;;;;;;5034230;28;20215;-88
2022/07/30 14:44:15;;;;;;;4.30;2.00;;;26.10;13.50;;;;;;5032405;28;20551;-87
2022/07/30 14:46:57;;;;;;;2.67;1.90;;;26.10;13.60;;;;;;5037406;28;20708;-88
2022/07/30 14:49:29;;;;;;;7.18;1.90;;;26.00;14.60;;;;;;5040322;28;20202;-87
2022/07/30 14:51:57;;;;;;;2.40;1.95;;;25.80;14.60;;;;;;5029101;28;20289;-89
2022/07/30 14:54:26;;;;;;;4.00;1.90;;;25.60;13.70;;;;;;5039723;28;20194;-88
2022/07/30 14:56:54;;;;;;;2.28;2.00;;;25.70;14.50;;;;;;5027788;28;20203;-89
2022/07/30 14:59:20;;;;;;;2.05;1.85;;;25.90;14.60;;;;;;5030911;28;20302;-90
2022/07/30 15:01:47;;;;;;;2.53;2.00;;;26.10;13.80;;;;;;5031050;28;20426;-90
2022/07/30 15:04:17;;;;;;;4.38;2.17;;;26.10;14.70;;;;;;5030603;28;20587;-88
2022/07/30 15:06:43;;;;;;;3.92;2.22;;;26.10;14.70;;;;;;5031243;28;20293;-88
2022/07/30 15:09:12;;;;;;;2.20;1.90;;;26.00;13.10;;;;;;5030201;28;20207;-88
2022/07/30 15:11:39;;;;;;;4.57;1.95;;;26.10;14.20;;;;;;5031874;28;20214;-89
2022/07/30 15:14:10;;;;;;;2.45;1.75;;;26.00;14.60;;;;;;5029942;28;20202;-89
2022/07/30 15:16:38;;;;;;;3.33;2.20;;;26.00;14.60;;;;;;5034903;28;20202;-88
2022/07/30 15:19:05;;;;;;;4.55;1.70;;;25.80;14.60;;;;;;5033312;28;20257;-90
2022/07/30 15:21:32;;;;;;;2.28;1.80;;;25.50;14.40;;;;;;5031061;28;20785;-88
2022/07/30 15:23:59;;;;;;;2.58;2.13;;;25.50;14.40;;;;;;5031095;28;20237;-89
2022/07/30 15:26:27;;;;;;;3.35;2.00;;;25.40;14.30;;;;;;5029595;28;20195;-88
2022/07/30 15:28:54;;;;;;;4.15;2.20;;;25.40;14.30;;;;;;5031508;28;20214;-88
2022/07/30 15:31:21;;;;;;;2.22;2.00;;;25.30;14.50;;;;;;5031718;28;20230;-88
2022/07/30 15:33:48;;;;;;;3.50;1.90;;;25.30;14.30;;;;;;5031647;28;20585;-88
2022/07/30 15:36:15;;;;;;;2.70;1.90;;;25.40;14.30;;;;;;5031297;28;20210;-88
2022/07/30 15:38:43;;;;;;;4.50;2.05;;;25.70;14.50;;;;;;5032662;28;20211;-89
2022/07/30 15:41:15;;;;;;;2.42;2.08;;;26.00;14.60;;;;;;5034886;28;20717;-88
2022/07/30 15:43:43;;;;;;;3.10;1.77;;;26.10;14.70;;;;;;5032209;28;20309;-86
2022/07/30 15:46:10;;;;;;;4.35;2.17;;;26.20;13.50;;;;;;5031883;28;20202;-87
2022/07/30 15:48:37;;;;;;;4.63;1.90;;;26.20;14.70;;;;;;5033386;28;20202;-88
2022/07/30 15:51:04;;;;;;;2.25;1.90;;;26.10;14.80;;;;;;5032700;28;20211;-87
2022/07/30 15:53:32;;;;;;;2.65;1.80;;;26.00;14.60;;;;;;5032890;28;20248;-88
2022/07/30 15:56:00;;;;;;;2.75;2.17;;;25.90;14.60;;;;;;5033142;28;20664;-87
2022/07/30 15:58:27;;;;;;;2.13;1.90;;;26.00;14.70;;;;;;5039263;28;20899;-85
2022/07/30 16:00:55;;;;;;;7.60;6.90;;;26.00;13.40;;;;;;5032507;28;20290;-87
2022/07/30 16:03:27;;;;;;;3.55;2.20;;;26.00;15.50;;;;;;5028743;28;20546;-85
2022/07/30 16:05:54;;;;;;;8.45;2.28;;;26.00;14.60;;;;;;5033803;28;20290;-88
2022/07/30 16:08:20;;;;;;;3.13;2.13;;;25.80;14.50;;;;;;5032353;28;20214;-87
2022/07/30 16:10:48;;;;;;;2.67;1.95;;;25.70;15.40;;;;;;5027831;28;20211;-88
2022/07/30 16:13:15;;;;;;;3.63;1.80;;;25.70;14.50;;;;;;5036461;28;20218;-89
2022/07/30 16:15:41;;;;;;;2.70;1.98;;;25.80;14.50;;;;;;5039591;28;20210;-86
2022/07/30 16:18:10;;;;;;;2.67;1.98;;;25.90;14.60;;;;;;5042138;28;20251;-86
2022/07/30 16:20:39;;;;;;;2.45;1.70;;;25.90;14.60;;;;;;5044813;28;20205;-86
2022/07/30 16:23:06;;;;;;;3.65;1.95;;;25.90;14.60;;;;;;5042082;28;20286;-85
2022/07/30 16:25:33;;;;;;;2.83;1.92;;;25.90;14.60;;;;;;5043959;28;20208;-84
2022/07/30 16:28:00;;;;;;;1.95;1.73;;;25.90;14.60;;;;;;5040375;28;20207;-86
2022/07/30 16:30:27;;;;;;;1.83;1.63;;;25.80;14.50;;;;;;5042521;28;20206;-86
2022/07/30 16:32:57;;;;;;;4.10;1.92;;;25.60;14.40;;;;;;5039483;28;20231;-84
2022/07/30 16:35:25;;;;;;;2.13;1.80;;;25.50;14.40;;;;;;5043899;28;20240;-84
2022/07/30 16:37:56;;;;;;;1.83;1.70;;;25.50;14.40;;;;;;5038349;28;20560;-85
2022/07/30 16:40:22;;;;;;;4.50;2.10;;;25.50;14.40;;;;;;5045109;28;20268;-87
2022/07/30 16:42:50;;;;;;;3.42;2.20;;;25.60;14.40;;;;;;5038513;28;20206;-87
2022/07/30 16:45:16;;;;;;;2.53;1.80;;;25.60;14.40;;;;;;5031239;28;20206;-91
2022/07/30 16:47:43;;;;;;;3.00;1.90;;;25.60;14.40;;;;;;5033173;28;20628;-90
2022/07/30 16:50:10;;;;;;;2.13;1.80;;;25.60;14.40;;;;;;5034585;28;20214;-86
2022/07/30 16:52:40;;;;;;;2.50;1.52;;;25.40;14.30;;;;;;5035798;28;20321;-88
2022/07/30 16:55:08;;;;;;;3.15;1.95;;;25.30;14.30;;;;;;5033081;28;20206;-89
2022/07/30 16:57:35;;;;;;;2.78;1.75;;;25.30;14.40;;;;;;5036379;28;20217;-88
2022/07/30 17:00:02;;;;;;;2.90;1.90;;;25.20;14.10;;;;;;5034279;28;20207;-89
2022/07/30 17:02:33;;;;;;;2.47;1.73;;;25.20;14.20;;;;;;5034150;28;20206;-90
2022/07/30 17:05:00;;;;;;;2.30;2.10;;;25.10;14.20;;;;;;5033369;28;20293;-88
2022/07/30 17:07:27;;;;;;;4.00;2.20;;;25.10;14.20;;;;;;5035758;28;20213;-88
2022/07/30 17:09:56;;;;;;;3.15;2.45;;;25.00;14.20;;;;;;5035916;28;20207;-88
2022/07/30 17:12:23;;;;;;;2.67;2.47;;;24.90;14.10;;;;;;5031889;28;20241;-90
2022/07/30 17:14:52;;;;;;;3.13;2.67;;;24.90;14.10;;;;;;5027779;28;20206;-90
2022/07/30 17:17:19;;;;;;;4.13;2.50;;;24.90;14.10;;;;;;5030264;28;20218;-89
2022/07/30 17:19:46;;;;;;;3.92;2.25;;;24.90;14.20;;;;;;5028761;28;20210;-90
2022/07/30 17:22:13;;;;;;;3.45;2.42;;;24.90;14.10;;;;;;5028187;28;20215;-90
2022/07/30 17:24:41;;;;;;;2.88;2.60;;;24.90;14.20;;;;;;5030609;28;20629;-89
2022/07/30 17:27:09;;;;;;;3.95;2.38;;;24.90;14.10;;;;;;5028034;28;20939;-90
2022/07/30 17:29:36;;;;;;;2.75;2.40;;;24.80;14.10;;;;;;5030119;28;20202;-90
2022/07/30 17:32:07;;;;;;;8.20;3.30;;;24.70;14.10;;;;;;5029737;28;20223;-89
2022/07/30 17:34:45;;;;;;;2.67;2.08;;;24.60;14.90;;;;;;5034354;28;20234;-88
2022/07/30 17:37:12;;;;;;;3.22;2.45;;;24.30;15.40;;;;;;5030457;28;20206;-89
2022/07/30 17:39:39;;;;;;;3.17;2.10;;;24.20;15.90;;;;;;5031797;28;20276;-89
2022/07/30 17:42:06;;;;;;;8.98;2.25;;;24.10;15.90;;;;;;5033617;28;20229;-90
2022/07/30 17:44:34;;;;;;;3.90;2.15;;;24.10;16.10;;;;;;5034607;28;20298;-89
2022/07/30 17:47:01;;;;;;;3.50;2.17;;;23.90;16.40;;;;;;5031651;28;20294;-90
2022/07/30 17:49:28;;;;;;;3.25;2.30;;;23.90;16.70;;;;;;5039201;28;20213;-89
2022/07/30 17:51:55;;;;;;;3.97;2.53;;;23.80;16.60;;;;;;5031928;28;20194;-88